sensor_id;sensor_type;location;lat;lon;timestamp;pressure;altitude;pressure_sealevel;temperature;humidity
53889;BME280;41337;51.400;-2.342;2022-09-12T00:04:22;100913.75;;;16.61;100.00
53889;BME280;41337;51.400;-2.342;2022-09-12T00:09:23;100908.53;;;16.59;100.00
53889;BME280;41337;51.400;-2.342;2022-09-12T00:14:24;100908.59;;;16.56;100.00
53889;BME280;41337;51.400;-2.342;2022-09-12T00:19:31;100906.16;;;16.47;100.00
53889;BME280;41337;51.400;-2.342;2022-09-12T00:24:32;100897.38;;;16.48;100.00
53889;BME280;41337;51.400;-2.342;2022-09-12T00:29:38;100888.56;;;16.49;100.00
53889;BME280;41337;51.400;-2.342;2022-09-12T00:34:40;100874.56;;;16.48;100.00
53889;BME280;41337;51.400;-2.342;2022-09-12T00:39:41;100885.06;;;16.50;100.00
53889;BME280;41337;51.400;-2.342;2022-09-12T00:44:45;100869.59;;;16.34;100.00
53889;BME280;41337;51.400;-2.342;2022-09-12T00:50:08;100871.38;;;16.32;100.00
53889;BME280;41337;51.400;-2.342;2022-09-12T00:55:27;100866.09;;;16.34;100.00
53889;BME280;41337;51.400;-2.342;2022-09-12T01:00:30;100863.47;;;16.34;100.00
53889;BME280;41337;51.400;-2.342;2022-09-12T01:05:34;100862.69;;;16.29;100.00
53889;BME280;41337;51.400;-2.342;2022-09-12T01:10:40;100855.03;;;16.18;100.00
53889;BME280;41337;51.400;-2.342;2022-09-12T01:15:42;100842.88;;;16.12;100.00
53889;BME280;41337;51.400;-2.342;2022-09-12T01:31:57;100822.00;;;16.05;100.00
53889;BME280;41337;51.400;-2.342;2022-09-12T01:37:22;100819.38;;;16.05;100.00
53889;BME280;41337;51.400;-2.342;2022-09-12T01:48:10;100795.34;;;15.81;100.00
53889;BME280;41337;51.400;-2.342;2022-09-12T01:53:53;100800.56;;;15.83;100.00
53889;BME280;41337;51.400;-2.342;2022-09-12T02:04:27;100789.28;;;15.77;100.00
53889;BME280;41337;51.400;-2.342;2022-09-12T02:15:16;100780.66;;;15.69;100.00
53889;BME280;41337;51.400;-2.342;2022-09-12T02:20:30;100777.19;;;15.66;100.00
53889;BME280;41337;51.400;-2.342;2022-09-12T02:25:39;100769.47;;;15.59;100.00
53889;BME280;41337;51.400;-2.342;2022-09-12T02:31:00;100764.16;;;15.61;100.00
53889;BME280;41337;51.400;-2.342;2022-09-12T02:36:18;100752.78;;;15.60;100.00
53889;BME280;41337;51.400;-2.342;2022-09-12T02:41:24;100745.84;;;15.59;100.00
53889;BME280;41337;51.400;-2.342;2022-09-12T02:46:45;100737.97;;;15.59;100.00
53889;BME280;41337;51.400;-2.342;2022-09-12T02:51:50;100725.69;;;15.60;100.00
53889;BME280;41337;51.400;-2.342;2022-09-12T02:56:51;100728.28;;;15.62;100.00
53889;BME280;41337;51.400;-2.342;2022-09-12T03:02:06;100735.19;;;15.66;100.00
53889;BME280;41337;51.400;-2.342;2022-09-12T03:29:02;100699.50;;;15.55;100.00
53889;BME280;41337;51.400;-2.342;2022-09-12T03:34:04;100691.56;;;15.58;100.00
53889;BME280;41337;51.400;-2.342;2022-09-12T03:39:05;100679.31;;;15.57;100.00
53889;BME280;41337;51.400;-2.342;2022-09-12T03:44:06;100685.44;;;15.59;100.00
53889;BME280;41337;51.400;-2.342;2022-09-12T03:49:07;100685.50;;;15.56;100.00
53889;BME280;41337;51.400;-2.342;2022-09-12T03:54:08;100677.56;;;15.59;100.00
53889;BME280;41337;51.400;-2.342;2022-09-12T03:59:13;100679.25;;;15.60;100.00
53889;BME280;41337;51.400;-2.342;2022-09-12T04:04:13;100669.75;;;15.56;100.00
53889;BME280;41337;51.400;-2.342;2022-09-12T04:09:14;100656.72;;;15.50;100.00
53889;BME280;41337;51.400;-2.342;2022-09-12T04:14:15;100662.84;;;15.51;100.00
53889;BME280;41337;51.400;-2.342;2022-09-12T04:19:16;100653.13;;;15.54;100.00
53889;BME280;41337;51.400;-2.342;2022-09-12T04:24:18;100645.22;;;15.56;100.00
53889;BME280;41337;51.400;-2.342;2022-09-12T04:29:18;100648.66;;;15.59;100.00
53889;BME280;41337;51.400;-2.342;2022-09-12T04:34:19;100646.91;;;15.60;100.00
53889;BME280;41337;51.400;-2.342;2022-09-12T04:39:20;100632.91;;;15.59;100.00
53889;BME280;41337;51.400;-2.342;2022-09-12T04:44:21;100625.09;;;15.56;100.00
53889;BME280;41337;51.400;-2.342;2022-09-12T04:49:22;100604.16;;;15.53;100.00
53889;BME280;41337;51.400;-2.342;2022-09-12T04:54:23;100626.88;;;15.54;100.00
53889;BME280;41337;51.400;-2.342;2022-09-12T04:59:24;100618.16;;;15.52;100.00
53889;BME280;41337;51.400;-2.342;2022-09-12T05:04:28;100618.16;;;15.52;100.00
53889;BME280;41337;51.400;-2.342;2022-09-12T05:09:29;100624.34;;;15.51;100.00
53889;BME280;41337;51.400;-2.342;2022-09-12T05:14:30;100635.59;;;15.56;100.00
53889;BME280;41337;51.400;-2.342;2022-09-12T05:19:32;100639.91;;;15.59;100.00
53889;BME280;41337;51.400;-2.342;2022-09-12T05:24:33;100636.53;;;15.54;100.00
53889;BME280;41337;51.400;-2.342;2022-09-12T05:29:34;100633.91;;;15.52;100.00
53889;BME280;41337;51.400;-2.342;2022-09-12T05:34:35;100632.28;;;15.48;100.00
53889;BME280;41337;51.400;-2.342;2022-09-12T05:39:43;100630.59;;;15.44;100.00
53889;BME280;41337;51.400;-2.342;2022-09-12T05:44:44;100623.69;;;15.40;100.00
53889;BME280;41337;51.400;-2.342;2022-09-12T05:49:44;100634.22;;;15.38;100.00
53889;BME280;41337;51.400;-2.342;2022-09-12T05:54:51;100638.66;;;15.35;100.00
53889;BME280;41337;51.400;-2.342;2022-09-12T05:59:52;100650.06;;;15.34;100.00
53889;BME280;41337;51.400;-2.342;2022-09-12T06:04:53;100645.63;;;15.36;100.00
53889;BME280;41337;51.400;-2.342;2022-09-12T06:09:54;100642.97;;;15.39;100.00
53889;BME280;41337;51.400;-2.342;2022-09-12T06:14:55;100630.75;;;15.36;100.00
53889;BME280;41337;51.400;-2.342;2022-09-12T06:19:56;100637.66;;;15.42;100.00
53889;BME280;41337;51.400;-2.342;2022-09-12T06:24:56;100638.44;;;15.46;100.00
53889;BME280;41337;51.400;-2.342;2022-09-12T06:29:57;100631.34;;;15.49;100.00
53889;BME280;41337;51.400;-2.342;2022-09-12T06:34:59;100629.44;;;15.57;100.00
53889;BME280;41337;51.400;-2.342;2022-09-12T06:39:59;100630.09;;;15.67;100.00
53889;BME280;41337;51.400;-2.342;2022-09-12T06:45:05;100632.50;;;15.80;100.00
53889;BME280;41337;51.400;-2.342;2022-09-12T06:50:07;100637.59;;;15.87;100.00
53889;BME280;41337;51.400;-2.342;2022-09-12T06:55:08;100649.63;;;15.98;100.00
53889;BME280;41337;51.400;-2.342;2022-09-12T07:00:09;100657.28;;;16.07;100.00
53889;BME280;41337;51.400;-2.342;2022-09-12T07:05:10;100663.19;;;16.17;100.00
53889;BME280;41337;51.400;-2.342;2022-09-12T07:10:11;100663.72;;;16.31;100.00
53889;BME280;41337;51.400;-2.342;2022-09-12T07:15:12;100672.25;;;16.41;100.00
53889;BME280;41337;51.400;-2.342;2022-09-12T07:20:19;100670.22;;;16.52;100.00
53889;BME280;41337;51.400;-2.342;2022-09-12T07:25:20;100662.00;;;16.66;100.00
53889;BME280;41337;51.400;-2.342;2022-09-12T07:30:21;100653.75;;;16.80;100.00
53889;BME280;41337;51.400;-2.342;2022-09-12T07:35:22;100658.81;;;16.89;100.00
53889;BME280;41337;51.400;-2.342;2022-09-12T07:40:29;100647.25;;;16.95;100.00
53889;BME280;41337;51.400;-2.342;2022-09-12T07:45:30;100648.75;;;17.05;100.00
53889;BME280;41337;51.400;-2.342;2022-09-12T07:50:31;100644.88;;;17.18;100.00
53889;BME280;41337;51.400;-2.342;2022-09-12T07:55:33;100656.78;;;17.32;100.00
53889;BME280;41337;51.400;-2.342;2022-09-12T08:00:33;100661.47;;;17.52;100.00
53889;BME280;41337;51.400;-2.342;2022-09-12T08:05:40;100655.47;;;17.76;100.00
53889;BME280;41337;51.400;-2.342;2022-09-12T08:10:41;100659.25;;;17.97;100.00
53889;BME280;41337;51.400;-2.342;2022-09-12T08:15:42;100663.03;;;18.17;100.00
53889;BME280;41337;51.400;-2.342;2022-09-12T08:20:43;100656.41;;;18.32;100.00
53889;BME280;41337;51.400;-2.342;2022-09-12T08:25:44;100653.69;;;18.35;100.00
53889;BME280;41337;51.400;-2.342;2022-09-12T08:30:58;100658.63;;;18.46;100.00
53889;BME280;41337;51.400;-2.342;2022-09-12T08:36:09;100651.31;;;18.54;100.00
53889;BME280;41337;51.400;-2.342;2022-09-12T08:41:32;100654.25;;;18.70;100.00
53889;BME280;41337;51.400;-2.342;2022-09-12T08:47:09;100657.22;;;18.87;100.00
53889;BME280;41337;51.400;-2.342;2022-09-12T08:52:19;100673.47;;;19.02;100.00
53889;BME280;41337;51.400;-2.342;2022-09-12T08:57:24;100684.50;;;19.13;100.00
53889;BME280;41337;51.400;-2.342;2022-09-12T09:02:41;100675.28;;;19.25;100.00
53889;BME280;41337;51.400;-2.342;2022-09-12T09:19:20;100678.97;;;19.44;100.00
53889;BME280;41337;51.400;-2.342;2022-09-12T09:24:37;100680.75;;;19.68;100.00
53889;BME280;41337;51.400;-2.342;2022-09-12T09:29:43;100673.75;;;19.90;100.00
53889;BME280;41337;51.400;-2.342;2022-09-12T09:34:45;100670.94;;;20.17;100.00
53889;BME280;41337;51.400;-2.342;2022-09-12T09:45:19;100681.97;;;20.93;100.00
53889;BME280;41337;51.400;-2.342;2022-09-12T09:50:45;100672.09;;;21.17;100.00
53889;BME280;41337;51.400;-2.342;2022-09-12T09:55:51;100672.38;;;21.51;100.00
53889;BME280;41337;51.400;-2.342;2022-09-12T10:01:01;100686.88;;;21.81;100.00
53889;BME280;41337;51.400;-2.342;2022-09-12T10:06:32;100676.31;;;22.37;100.00
53889;BME280;41337;51.400;-2.342;2022-09-12T10:11:37;100691.72;;;23.18;100.00
53889;BME280;41337;51.400;-2.342;2022-09-12T10:16:49;100692.56;;;23.36;100.00
53889;BME280;41337;51.400;-2.342;2022-09-12T10:22:06;100695.47;;;23.64;100.00
53889;BME280;41337;51.400;-2.342;2022-09-12T10:27:27;100698.94;;;24.14;100.00
53889;BME280;41337;51.400;-2.342;2022-09-12T10:32:41;100703.28;;;24.63;100.00
53889;BME280;41337;51.400;-2.342;2022-09-12T10:38:05;100712.19;;;25.23;100.00
53889;BME280;41337;51.400;-2.342;2022-09-12T10:43:26;100712.13;;;25.68;100.00
53889;BME280;41337;51.400;-2.342;2022-09-12T10:48:30;100711.06;;;25.99;100.00
53889;BME280;41337;51.400;-2.342;2022-09-12T10:53:38;100719.97;;;26.27;100.00
53889;BME280;41337;51.400;-2.342;2022-09-12T11:20:41;100695.78;;;27.36;97.04
53889;BME280;41337;51.400;-2.342;2022-09-12T11:42:05;100680.47;;;27.12;84.28
53889;BME280;41337;51.400;-2.342;2022-09-12T11:47:12;100678.63;;;27.00;82.48
53889;BME280;41337;51.400;-2.342;2022-09-12T11:52:19;100685.03;;;27.10;86.87
53889;BME280;41337;51.400;-2.342;2022-09-12T12:07:57;100676.78;;;26.87;83.37
53889;BME280;41337;51.400;-2.342;2022-09-12T12:12:59;100677.28;;;26.40;86.45
53889;BME280;41337;51.400;-2.342;2022-09-12T12:18:12;100679.00;;;26.13;90.04
53889;BME280;41337;51.400;-2.342;2022-09-12T12:23:33;100674.50;;;25.58;94.74
53889;BME280;41337;51.400;-2.342;2022-09-12T12:28:56;100674.72;;;25.40;100.00
53889;BME280;41337;51.400;-2.342;2022-09-12T12:34:03;100666.78;;;25.24;100.00
53889;BME280;41337;51.400;-2.342;2022-09-12T12:44:49;100674.22;;;25.19;98.56
53889;BME280;41337;51.400;-2.342;2022-09-12T12:50:07;100677.28;;;25.42;98.68
53889;BME280;41337;51.400;-2.342;2022-09-12T12:55:18;100678.63;;;25.63;99.96
53889;BME280;41337;51.400;-2.342;2022-09-12T13:05:28;100683.63;;;25.82;93.29
53889;BME280;41337;51.400;-2.342;2022-09-12T13:10:33;100670.81;;;25.60;94.84
53889;BME280;41337;51.400;-2.342;2022-09-12T13:21:07;100671.28;;;25.38;99.63
53889;BME280;41337;51.400;-2.342;2022-09-12T13:26:40;100669.78;;;25.34;99.18
53889;BME280;41337;51.400;-2.342;2022-09-12T13:31:43;100664.44;;;25.34;100.00
53889;BME280;41337;51.400;-2.342;2022-09-12T13:42:38;100667.84;;;25.65;97.73
53889;BME280;41337;51.400;-2.342;2022-09-12T13:47:44;100669.16;;;25.72;100.00
53889;BME280;41337;51.400;-2.342;2022-09-12T13:52:55;100668.94;;;25.90;96.05
53889;BME280;41337;51.400;-2.342;2022-09-12T13:58:05;100671.28;;;26.09;97.35
53889;BME280;41337;51.400;-2.342;2022-09-12T14:03:33;100654.78;;;26.16;94.67
53889;BME280;41337;51.400;-2.342;2022-09-12T14:08:56;100654.44;;;26.08;94.02
53889;BME280;41337;51.400;-2.342;2022-09-12T14:13:58;100632.22;;;26.08;95.39
53889;BME280;41337;51.400;-2.342;2022-09-12T14:19:08;100624.72;;;26.27;93.21
53889;BME280;41337;51.400;-2.342;2022-09-12T14:24:11;100620.88;;;26.44;90.76
53889;BME280;41337;51.400;-2.342;2022-09-12T14:29:17;100615.75;;;26.41;90.29
53889;BME280;41337;51.400;-2.342;2022-09-12T14:34:19;100616.59;;;26.42;91.79
53889;BME280;41337;51.400;-2.342;2022-09-12T14:45:14;100629.41;;;26.77;100.00
53889;BME280;41337;51.400;-2.342;2022-09-12T14:50:22;100621.59;;;27.25;100.00
53889;BME280;41337;51.400;-2.342;2022-09-12T14:55:32;100623.63;;;27.08;99.93
53889;BME280;41337;51.400;-2.342;2022-09-12T15:00:33;100624.31;;;27.12;95.54
53889;BME280;41337;51.400;-2.342;2022-09-12T15:05:47;100608.69;;;27.06;99.36
53889;BME280;41337;51.400;-2.342;2022-09-12T15:10:49;100621.31;;;26.91;100.00
53889;BME280;41337;51.400;-2.342;2022-09-12T15:15:52;100611.13;;;26.70;100.00
53889;BME280;41337;51.400;-2.342;2022-09-12T15:21:01;100599.28;;;26.74;100.00
53889;BME280;41337;51.400;-2.342;2022-09-12T15:26:22;100586.59;;;26.51;100.00
53889;BME280;41337;51.400;-2.342;2022-09-12T15:31:30;100586.38;;;26.41;100.00
53889;BME280;41337;51.400;-2.342;2022-09-12T15:36:37;100565.97;;;26.40;100.00
53889;BME280;41337;51.400;-2.342;2022-09-12T15:41:38;100555.78;;;26.19;100.00
53889;BME280;41337;51.400;-2.342;2022-09-12T15:46:39;100558.25;;;26.23;100.00
53889;BME280;41337;51.400;-2.342;2022-09-12T15:51:40;100558.56;;;26.18;100.00
53889;BME280;41337;51.400;-2.342;2022-09-12T15:56:44;100544.22;;;26.06;100.00
53889;BME280;41337;51.400;-2.342;2022-09-12T16:01:45;100559.84;;;26.12;100.00
53889;BME280;41337;51.400;-2.342;2022-09-12T16:06:46;100558.78;;;26.28;100.00
53889;BME280;41337;51.400;-2.342;2022-09-12T16:11:48;100565.09;;;26.40;100.00
53889;BME280;41337;51.400;-2.342;2022-09-12T16:16:58;100560.72;;;26.26;100.00
53889;BME280;41337;51.400;-2.342;2022-09-12T16:21:58;100556.44;;;26.36;100.00
53889;BME280;41337;51.400;-2.342;2022-09-12T16:26:59;100554.72;;;26.35;100.00
53889;BME280;41337;51.400;-2.342;2022-09-12T16:32:06;100548.75;;;26.31;100.00
53889;BME280;41337;51.400;-2.342;2022-09-12T16:37:07;100546.16;;;26.17;100.00
53889;BME280;41337;51.400;-2.342;2022-09-12T16:42:08;100546.34;;;26.01;100.00
53889;BME280;41337;51.400;-2.342;2022-09-12T16:47:09;100542.44;;;25.92;100.00
53889;BME280;41337;51.400;-2.342;2022-09-12T16:52:10;100548.06;;;25.88;100.00
53889;BME280;41337;51.400;-2.342;2022-09-12T16:57:17;100547.28;;;25.73;100.00
53889;BME280;41337;51.400;-2.342;2022-09-12T17:02:18;100541.13;;;25.58;100.00
53889;BME280;41337;51.400;-2.342;2022-09-12T17:07:19;100540.22;;;25.44;100.00
53889;BME280;41337;51.400;-2.342;2022-09-12T17:12:19;100545.66;;;25.43;100.00
53889;BME280;41337;51.400;-2.342;2022-09-12T17:17:20;100553.16;;;25.22;100.00
53889;BME280;41337;51.400;-2.342;2022-09-12T17:22:27;100563.09;;;25.05;100.00
53889;BME280;41337;51.400;-2.342;2022-09-12T17:27:27;100558.06;;;24.86;100.00
53889;BME280;41337;51.400;-2.342;2022-09-12T17:32:28;100542.81;;;24.60;100.00
53889;BME280;41337;51.400;-2.342;2022-09-12T17:37:29;100549.44;;;24.52;100.00
53889;BME280;41337;51.400;-2.342;2022-09-12T17:42:30;100553.69;;;24.41;100.00
53889;BME280;41337;51.400;-2.342;2022-09-12T17:47:31;100559.16;;;24.23;100.00
53889;BME280;41337;51.400;-2.342;2022-09-12T17:52:38;100578.91;;;24.19;100.00
53889;BME280;41337;51.400;-2.342;2022-09-12T17:57:39;100582.28;;;24.07;100.00
53889;BME280;41337;51.400;-2.342;2022-09-12T18:02:40;100586.06;;;24.03;100.00
53889;BME280;41337;51.400;-2.342;2022-09-12T18:07:41;100578.97;;;23.87;100.00
53889;BME280;41337;51.400;-2.342;2022-09-12T18:12:48;100572.31;;;23.78;100.00
53889;BME280;41337;51.400;-2.342;2022-09-12T18:17:50;100574.56;;;23.70;100.00
53889;BME280;41337;51.400;-2.342;2022-09-12T18:22:51;100568.47;;;23.52;100.00
53889;BME280;41337;51.400;-2.342;2022-09-12T18:28:00;100563.34;;;23.49;100.00
53889;BME280;41337;51.400;-2.342;2022-09-12T18:33:07;100556.72;;;23.24;100.00
53889;BME280;41337;51.400;-2.342;2022-09-12T18:38:08;100567.88;;;23.15;100.00
53889;BME280;41337;51.400;-2.342;2022-09-12T18:43:09;100564.75;;;23.07;100.00
53889;BME280;41337;51.400;-2.342;2022-09-12T18:48:10;100570.53;;;22.98;100.00
53889;BME280;41337;51.400;-2.342;2022-09-12T18:53:11;100568.16;;;22.76;100.00
53889;BME280;41337;51.400;-2.342;2022-09-12T18:58:11;100548.75;;;22.58;100.00
53889;BME280;41337;51.400;-2.342;2022-09-12T19:03:13;100545.88;;;22.45;100.00
53889;BME280;41337;51.400;-2.342;2022-09-12T19:08:18;100559.28;;;22.42;100.00
53889;BME280;41337;51.400;-2.342;2022-09-12T19:13:18;100557.88;;;22.34;100.00
53889;BME280;41337;51.400;-2.342;2022-09-12T19:18:19;100547.31;;;22.15;100.00
53889;BME280;41337;51.400;-2.342;2022-09-12T19:23:20;100548.81;;;22.04;100.00
53889;BME280;41337;51.400;-2.342;2022-09-12T19:28:22;100545.50;;;21.98;100.00
53889;BME280;41337;51.400;-2.342;2022-09-12T19:33:23;100549.75;;;21.84;100.00
53889;BME280;41337;51.400;-2.342;2022-09-12T19:38:28;100549.75;;;21.66;100.00
53889;BME280;41337;51.400;-2.342;2022-09-12T19:43:30;100542.94;;;21.41;100.00
53889;BME280;41337;51.400;-2.342;2022-09-12T19:48:32;100551.31;;;21.32;100.00
53889;BME280;41337;51.400;-2.342;2022-09-12T19:53:33;100566.41;;;21.30;100.00
53889;BME280;41337;51.400;-2.342;2022-09-12T19:58:59;100564.19;;;21.21;100.00
53889;BME280;41337;51.400;-2.342;2022-09-12T20:04:00;100576.00;;;21.14;100.00
53889;BME280;41337;51.400;-2.342;2022-09-12T20:09:01;100576.06;;;21.12;100.00
53889;BME280;41337;51.400;-2.342;2022-09-12T20:14:02;100590.94;;;21.15;100.00
53889;BME280;41337;51.400;-2.342;2022-09-12T20:19:08;100594.69;;;21.11;100.00
53889;BME280;41337;51.400;-2.342;2022-09-12T20:24:11;100586.22;;;21.02;100.00
53889;BME280;41337;51.400;-2.342;2022-09-12T20:29:19;100585.91;;;20.89;100.00
53889;BME280;41337;51.400;-2.342;2022-09-12T20:34:22;100596.03;;;20.80;100.00
53889;BME280;41337;51.400;-2.342;2022-09-12T20:39:26;100608.50;;;20.78;100.00
53889;BME280;41337;51.400;-2.342;2022-09-12T20:44:27;100604.88;;;20.58;100.00
53889;BME280;41337;51.400;-2.342;2022-09-12T20:49:29;100594.53;;;20.31;100.00
53889;BME280;41337;51.400;-2.342;2022-09-12T20:54:30;100601.06;;;20.23;100.00
53889;BME280;41337;51.400;-2.342;2022-09-12T20:59:31;100612.81;;;20.15;100.00
53889;BME280;41337;51.400;-2.342;2022-09-12T21:04:32;100602.94;;;19.98;100.00
53889;BME280;41337;51.400;-2.342;2022-09-12T21:09:33;100595.41;;;19.88;100.00
53889;BME280;41337;51.400;-2.342;2022-09-12T21:14:37;100617.91;;;19.76;100.00
53889;BME280;41337;51.400;-2.342;2022-09-12T21:19:38;100631.75;;;19.59;100.00
53889;BME280;41337;51.400;-2.342;2022-09-12T21:24:38;100637.56;;;19.45;100.00
53889;BME280;41337;51.400;-2.342;2022-09-12T21:29:39;100632.69;;;19.34;100.00
53889;BME280;41337;51.400;-2.342;2022-09-12T21:34:40;100637.50;;;19.23;100.00
53889;BME280;41337;51.400;-2.342;2022-09-12T21:39:41;100634.44;;;19.10;100.00
53889;BME280;41337;51.400;-2.342;2022-09-12T21:44:42;100628.94;;;19.16;100.00
53889;BME280;41337;51.400;-2.342;2022-09-12T21:49:43;100621.06;;;19.15;100.00
53889;BME280;41337;51.400;-2.342;2022-09-12T21:54:43;100631.97;;;19.05;100.00
53889;BME280;41337;51.400;-2.342;2022-09-12T21:59:44;100651.25;;;19.07;100.00
53889;BME280;41337;51.400;-2.342;2022-09-12T22:04:50;100631.31;;;18.99;100.00
53889;BME280;41337;51.400;-2.342;2022-09-12T22:09:51;100639.41;;;18.94;100.00
53889;BME280;41337;51.400;-2.342;2022-09-12T22:14:52;100650.53;;;19.02;100.00
53889;BME280;41337;51.400;-2.342;2022-09-12T22:19:57;100638.75;;;18.87;100.00
53889;BME280;41337;51.400;-2.342;2022-09-12T22:25:02;100644.97;;;18.86;100.00
53889;BME280;41337;51.400;-2.342;2022-09-12T22:30:04;100645.06;;;18.83;100.00
53889;BME280;41337;51.400;-2.342;2022-09-12T22:35:05;100634.63;;;18.79;100.00
53889;BME280;41337;51.400;-2.342;2022-09-12T22:40:09;100638.34;;;18.73;100.00
53889;BME280;41337;51.400;-2.342;2022-09-12T22:45:11;100642.84;;;18.69;100.00
53889;BME280;41337;51.400;-2.342;2022-09-12T22:50:12;100635.09;;;18.65;100.00
53889;BME280;41337;51.400;-2.342;2022-09-12T22:55:13;100626.38;;;18.63;100.00
53889;BME280;41337;51.400;-2.342;2022-09-12T23:00:14;100622.69;;;18.68;100.00
53889;BME280;41337;51.400;-2.342;2022-09-12T23:05:21;100627.06;;;18.68;100.00
53889;BME280;41337;51.400;-2.342;2022-09-12T23:10:22;100618.22;;;18.70;100.00
53889;BME280;41337;51.400;-2.342;2022-09-12T23:15:23;100613.84;;;18.69;100.00
53889;BME280;41337;51.400;-2.342;2022-09-12T23:20:24;100619.84;;;18.73;100.00
53889;BME280;41337;51.400;-2.342;2022-09-12T23:25:25;100613.69;;;18.74;100.00
53889;BME280;41337;51.400;-2.342;2022-09-12T23:30:25;100617.13;;;18.76;100.00
53889;BME280;41337;51.400;-2.342;2022-09-12T23:35:27;100628.06;;;18.65;100.00
53889;BME280;41337;51.400;-2.342;2022-09-12T23:40:28;100645.03;;;18.57;100.00
53889;BME280;41337;51.400;-2.342;2022-09-12T23:45:33;100654.84;;;18.53;100.00
53889;BME280;41337;51.400;-2.342;2022-09-12T23:50:34;100643.50;;;18.51;100.00
53889;BME280;41337;51.400;-2.342;2022-09-12T23:55:34;100634.72;;;18.50;100.00
